createdAt,value
2017-11-13T00:01:45.635Z,99724.36
2017-11-13T00:04:13.032Z,99728.93
2017-11-13T00:06:40.425Z,99724.42
2017-11-13T00:09:07.803Z,99730.81
2017-11-13T00:11:35.199Z,99738.71
2017-11-13T00:14:02.627Z,99740.45
2017-11-13T00:16:30.015Z,99740.92
2017-11-13T00:18:57.395Z,99742.64
2017-11-13T00:21:24.788Z,99744.79
2017-11-13T00:23:52.171Z,99746.55
2017-11-13T00:26:19.567Z,99756.02
2017-11-13T00:28:46.960Z,99756.17
2017-11-13T00:31:14.342Z,99758.09
2017-11-13T00:33:41.737Z,99768.05
2017-11-13T00:36:09.123Z,99764.47
2017-11-13T00:38:36.513Z,99777.55
2017-11-13T00:41:03.898Z,99781.22
2017-11-13T00:43:31.297Z,99782.53
2017-11-13T00:45:58.680Z,99786.50
2017-11-13T00:48:26.108Z,99786.68
2017-11-13T00:50:53.495Z,99789.17
2017-11-13T00:53:20.881Z,99788.50
2017-11-13T00:55:48.284Z,99793.34
2017-11-13T00:58:15.669Z,99794.52
2017-11-13T01:00:43.071Z,99797.83
2017-11-13T01:03:10.460Z,99796.91
2017-11-13T01:05:37.852Z,99804.91
2017-11-13T01:08:05.243Z,99808.44
2017-11-13T01:10:32.663Z,99809.14
2017-11-13T01:13:00.050Z,99815.86
2017-11-13T01:15:27.431Z,99813.30
2017-11-13T01:17:54.824Z,99816.06
2017-11-13T01:20:22.212Z,99817.39
2017-11-13T01:22:49.602Z,99825.09
2017-11-13T01:25:16.983Z,99826.20
2017-11-13T01:27:44.384Z,99830.80
2017-11-13T01:30:11.778Z,99838.11
2017-11-13T01:32:39.171Z,99846.00
2017-11-13T01:35:06.558Z,99853.78
2017-11-13T01:37:33.946Z,99851.85
2017-11-13T01:40:01.332Z,99854.31
2017-11-13T01:42:28.723Z,99859.02
2017-11-13T01:44:56.113Z,99855.98
2017-11-13T01:47:23.511Z,99857.58
2017-11-13T01:49:50.904Z,99860.64
2017-11-13T01:52:18.291Z,99859.25
2017-11-13T01:54:45.687Z,99868.50
2017-11-13T01:57:13.080Z,99880.75
2017-11-13T01:59:40.467Z,99879.67
2017-11-13T02:02:07.855Z,99883.56
2017-11-13T02:04:35.251Z,99886.34
2017-11-13T02:07:02.638Z,99877.37
2017-11-13T02:09:30.023Z,99881.72
2017-11-13T02:11:57.423Z,99880.15
2017-11-13T02:14:24.804Z,99888.64
2017-11-13T02:16:52.232Z,99894.17
2017-11-13T02:19:19.596Z,99893.80
2017-11-13T02:21:46.988Z,99901.04
2017-11-13T02:24:14.385Z,99900.58
2017-11-13T02:26:41.767Z,99903.78
2017-11-13T02:29:09.158Z,99909.22
2017-11-13T02:31:36.546Z,99912.97
2017-11-13T02:34:03.939Z,99919.02
2017-11-13T02:36:31.323Z,99920.81
2017-11-13T02:38:58.719Z,99926.89
2017-11-13T02:41:26.107Z,99928.05
2017-11-13T02:43:53.513Z,99946.32
2017-11-13T02:46:20.908Z,99946.66
2017-11-13T02:48:48.311Z,99945.97
2017-11-13T02:51:15.695Z,99934.97
2017-11-13T02:53:43.084Z,99940.02
2017-11-13T02:56:10.476Z,99945.55
2017-11-13T02:58:37.864Z,99948.48
2017-11-13T03:01:05.265Z,99953.27
2017-11-13T03:03:32.648Z,99964.41
2017-11-13T03:06:00.035Z,99963.72
2017-11-13T03:08:27.424Z,99970.09
2017-11-13T03:10:54.811Z,99972.35
2017-11-13T03:13:22.207Z,99973.81
2017-11-13T03:15:49.594Z,99977.88
2017-11-13T03:18:16.979Z,99974.30
2017-11-13T03:20:44.363Z,99975.10
2017-11-13T03:23:11.772Z,99977.67
2017-11-13T03:25:39.160Z,99973.60
2017-11-13T03:28:06.543Z,99980.38
2017-11-13T03:30:33.946Z,99987.06
2017-11-13T03:33:01.327Z,99995.30
2017-11-13T03:35:28.723Z,100000.23
2017-11-13T03:37:56.121Z,100000.36
2017-11-13T03:40:23.507Z,100001.95
2017-11-13T03:42:50.900Z,100009.65
2017-11-13T03:45:18.296Z,100011.41
2017-11-13T03:47:45.696Z,100004.95
2017-11-13T03:50:13.071Z,100009.23
2017-11-13T03:52:40.468Z,100019.95
2017-11-13T03:55:07.855Z,100019.06
2017-11-13T03:57:35.263Z,100024.33
2017-11-13T04:00:02.659Z,100024.96
2017-11-13T04:02:30.057Z,100028.77
2017-11-13T04:04:57.444Z,100034.23
2017-11-13T04:07:24.854Z,100034.30
2017-11-13T04:09:52.239Z,100040.08
2017-11-13T04:12:19.628Z,100037.05
2017-11-13T04:14:47.049Z,100047.56
2017-11-13T04:17:14.407Z,100053.80
2017-11-13T04:19:41.811Z,100053.25
2017-11-13T04:22:09.204Z,100055.20
2017-11-13T04:24:36.599Z,100063.14
2017-11-13T04:27:03.995Z,100069.36
2017-11-13T04:29:31.403Z,100076.89
2017-11-13T04:31:58.800Z,100080.36
2017-11-13T04:34:26.183Z,100079.48
2017-11-13T04:36:53.580Z,100083.61
2017-11-13T04:39:20.991Z,100080.84
2017-11-13T04:41:48.396Z,100084.50
2017-11-13T04:44:15.786Z,100091.27
2017-11-13T04:46:43.192Z,100095.88
2017-11-13T04:49:10.604Z,100106.87
2017-11-13T04:51:38.022Z,100109.88
2017-11-13T04:54:05.416Z,100119.20
2017-11-13T04:56:32.803Z,100113.31
2017-11-13T04:59:00.932Z,100109.13
2017-11-13T05:01:28.335Z,100118.11
2017-11-13T05:03:55.731Z,100119.22
2017-11-13T05:06:23.139Z,100128.91
2017-11-13T05:08:50.539Z,100126.46
2017-11-13T05:11:17.931Z,100136.94
2017-11-13T05:13:45.382Z,100138.73
2017-11-13T05:16:12.763Z,100145.14
2017-11-13T05:18:40.185Z,100149.20
2017-11-13T05:21:07.820Z,100148.79
2017-11-13T05:23:35.215Z,100152.86
2017-11-13T05:26:02.647Z,100150.00
2017-11-13T05:28:30.030Z,100151.49
2017-11-13T05:30:57.423Z,100154.45
2017-11-13T05:33:24.820Z,100162.70
2017-11-13T05:35:52.209Z,100162.80
2017-11-13T05:38:19.606Z,100170.38
2017-11-13T05:40:46.996Z,100166.05
2017-11-13T05:43:14.391Z,100168.60
2017-11-13T05:45:41.844Z,100167.42
2017-11-13T05:48:09.244Z,100168.96
2017-11-13T05:50:36.630Z,100172.40
2017-11-13T05:53:04.020Z,100175.76
2017-11-13T05:55:31.412Z,100177.04
2017-11-13T05:57:58.807Z,100174.50
2017-11-13T06:00:26.217Z,100183.83
2017-11-13T06:02:53.604Z,100182.77
2017-11-13T06:05:21.009Z,100192.24
2017-11-13T06:07:48.394Z,100202.28
2017-11-13T06:10:15.826Z,100199.42
2017-11-13T06:12:43.224Z,100206.03
2017-11-13T06:15:10.623Z,100206.56
2017-11-13T06:17:38.024Z,100209.36
2017-11-13T06:20:05.408Z,100217.08
2017-11-13T06:22:32.807Z,100217.77
2017-11-13T06:25:00.200Z,100217.30
2017-11-13T06:27:27.603Z,100221.62
2017-11-13T06:29:55.012Z,100231.78
2017-11-13T06:32:22.415Z,100229.23
2017-11-13T06:34:49.810Z,100235.48
2017-11-13T06:37:17.196Z,100245.47
2017-11-13T06:39:44.583Z,100254.08
2017-11-13T06:42:11.978Z,100258.44
2017-11-13T06:44:39.371Z,100261.69
2017-11-13T06:47:06.743Z,100274.64
2017-11-13T06:49:34.583Z,100281.70
2017-11-13T06:52:01.998Z,100287.35
2017-11-13T06:54:29.395Z,100291.97
2017-11-13T06:56:56.783Z,100287.92
2017-11-13T06:59:24.163Z,100285.11
2017-11-13T07:01:51.561Z,100297.22
2017-11-13T07:04:18.955Z,100299.45
2017-11-13T07:06:46.352Z,100297.18
2017-11-13T07:09:13.753Z,100304.63
2017-11-13T07:11:41.156Z,100302.63
2017-11-13T07:14:08.552Z,100307.95
2017-11-13T07:16:35.940Z,100305.32
2017-11-13T07:19:03.345Z,100313.73
2017-11-13T07:21:30.735Z,100315.67
2017-11-13T07:23:58.128Z,100322.97
2017-11-13T07:26:25.515Z,100331.18
2017-11-13T07:28:52.912Z,100334.41
2017-11-13T07:31:20.307Z,100341.50
2017-11-13T07:33:47.719Z,100349.00
2017-11-13T07:36:15.099Z,100353.51
2017-11-13T07:38:42.492Z,100352.42
2017-11-13T07:41:09.892Z,100357.34
2017-11-13T07:43:37.284Z,100360.47
2017-11-13T07:46:04.680Z,100367.52
2017-11-13T07:48:32.076Z,100377.89
2017-11-13T07:50:59.488Z,100374.73
2017-11-13T07:53:26.880Z,100377.36
2017-11-13T07:55:54.267Z,100377.80
2017-11-13T07:58:21.782Z,100381.04
2017-11-13T08:00:49.155Z,100379.39
2017-11-13T08:03:16.553Z,100374.73
2017-11-13T08:05:43.947Z,100379.71
2017-11-13T08:08:11.340Z,100382.19
2017-11-13T08:10:38.731Z,100384.19
2017-11-13T08:13:06.136Z,100382.56
2017-11-13T08:15:33.527Z,100382.27
2017-11-13T08:18:00.948Z,100384.05
2017-11-13T08:20:28.335Z,100384.41
2017-11-13T08:22:55.734Z,100395.00
2017-11-13T08:25:23.119Z,100390.03
2017-11-13T08:27:50.511Z,100394.48
2017-11-13T08:30:17.912Z,100402.55
2017-11-13T08:32:45.304Z,100405.21
2017-11-13T08:35:12.704Z,100409.94
2017-11-13T08:37:40.096Z,100415.94
2017-11-13T08:40:07.495Z,100419.05
2017-11-13T08:42:34.898Z,100427.45
2017-11-13T08:45:02.282Z,100428.61
2017-11-13T08:47:29.689Z,100444.08
2017-11-13T08:49:57.067Z,100434.10
2017-11-13T08:52:24.463Z,100441.66
2017-11-13T08:54:51.852Z,100445.84
2017-11-13T08:57:19.271Z,100442.89
2017-11-13T08:59:46.663Z,100449.66
2017-11-13T09:02:14.051Z,100444.80
2017-11-13T09:04:41.453Z,100445.57
2017-11-13T09:07:08.847Z,100453.14
2017-11-13T09:09:36.252Z,100457.11
2017-11-13T09:12:04.308Z,100463.14
2017-11-13T09:14:31.700Z,100466.95
2017-11-13T09:16:59.098Z,100461.58
2017-11-13T09:19:26.483Z,100464.33
2017-11-13T09:21:53.875Z,100471.79
2017-11-13T09:24:21.263Z,100470.13
2017-11-13T09:26:48.655Z,100471.69
2017-11-13T09:29:16.048Z,100475.50
2017-11-13T09:31:43.456Z,100469.14
2017-11-13T09:34:10.853Z,100477.81
2017-11-13T09:36:38.240Z,100481.88
2017-11-13T09:39:05.640Z,100485.91
2017-11-13T09:41:33.037Z,100492.05
2017-11-13T09:44:00.436Z,100496.75
2017-11-13T09:46:27.823Z,100498.70
2017-11-13T09:48:55.228Z,100501.66
2017-11-13T09:51:22.620Z,100511.28
2017-11-13T09:53:50.015Z,100516.14
2017-11-13T09:56:17.410Z,100521.38
2017-11-13T09:58:44.801Z,100525.32
2017-11-13T10:01:12.200Z,100528.67
2017-11-13T10:03:39.622Z,100521.06
2017-11-13T10:06:07.053Z,100528.60
2017-11-13T10:08:34.444Z,100533.47
2017-11-13T10:11:01.836Z,100537.23
2017-11-13T10:13:29.228Z,100541.55
2017-11-13T10:15:56.627Z,100539.64
2017-11-13T10:18:24.029Z,100541.96
2017-11-13T10:20:51.415Z,100531.72
2017-11-13T10:23:18.815Z,100543.13
2017-11-13T10:25:46.210Z,100541.01
2017-11-13T10:28:13.788Z,100533.91
2017-11-13T10:30:41.175Z,100539.78
2017-11-13T10:33:08.563Z,100528.31
2017-11-13T10:35:35.999Z,100530.57
2017-11-13T10:38:03.370Z,100531.59
2017-11-13T10:40:30.771Z,100527.89
2017-11-13T10:42:58.170Z,100522.80
2017-11-13T10:45:25.571Z,100522.52
2017-11-13T10:47:52.965Z,100524.44
2017-11-13T10:50:20.382Z,100525.73
2017-11-13T10:52:47.762Z,100528.42
2017-11-13T10:55:15.155Z,100526.95
2017-11-13T10:57:42.560Z,100534.41
2017-11-13T11:00:09.957Z,100530.37
2017-11-13T11:02:37.352Z,100535.87
2017-11-13T11:05:04.747Z,100542.47
2017-11-13T11:07:32.162Z,100539.27
2017-11-13T11:09:59.573Z,100538.89
2017-11-13T11:12:31.413Z,100536.20
2017-11-13T11:18:13.080Z,100540.35
2017-11-13T11:20:40.476Z,100544.75
2017-11-13T11:23:11.316Z,100553.24
2017-11-13T11:29:04.180Z,100542.69
2017-11-13T11:31:33.356Z,100558.05
2017-11-13T11:34:00.756Z,100555.48
2017-11-13T11:36:29.063Z,100550.62
2017-11-13T11:38:56.470Z,100561.23
2017-11-13T11:41:23.910Z,100559.16
2017-11-13T11:43:51.307Z,100556.83
2017-11-13T11:46:18.709Z,100551.48
2017-11-13T11:48:46.105Z,100556.91
2017-11-13T11:51:13.504Z,100560.56
2017-11-13T11:53:40.900Z,100558.55
2017-11-13T11:56:13.952Z,100556.05
2017-11-13T11:58:41.352Z,100559.52
2017-11-13T12:01:08.752Z,100563.02
2017-11-13T12:03:36.148Z,100569.06
2017-11-13T12:06:03.548Z,100577.80
2017-11-13T12:08:30.935Z,100580.56
2017-11-13T12:10:58.330Z,100580.12
2017-11-13T12:13:25.731Z,100579.16
2017-11-13T12:15:53.144Z,100590.19
2017-11-13T12:18:20.535Z,100590.30
2017-11-13T12:20:47.928Z,100585.98
2017-11-13T12:23:15.332Z,100589.69
2017-11-13T12:25:42.716Z,100594.02
2017-11-13T12:28:10.112Z,100597.97
2017-11-13T12:30:37.506Z,100592.48
2017-11-13T12:33:04.909Z,100594.61
2017-11-13T12:35:32.296Z,100599.11
2017-11-13T12:37:59.712Z,100598.08
2017-11-13T12:40:32.931Z,100606.42
2017-11-13T12:43:00.323Z,100604.53
2017-11-13T12:45:27.715Z,100606.41
2017-11-13T12:47:55.122Z,100609.60
2017-11-13T12:50:22.500Z,100609.83
2017-11-13T12:52:49.887Z,100612.18
2017-11-13T12:55:17.291Z,100614.47
2017-11-13T12:57:44.682Z,100608.25
2017-11-13T13:00:12.083Z,100609.63
2017-11-13T13:02:39.479Z,100613.76
2017-11-13T13:05:06.873Z,100614.92
2017-11-13T13:07:34.267Z,100621.40
2017-11-13T13:10:01.663Z,100615.09
2017-11-13T13:12:29.065Z,100617.38
2017-11-13T13:14:56.463Z,100622.46
2017-11-13T13:17:23.867Z,100627.64
2017-11-13T13:19:51.270Z,100624.78
2017-11-13T13:22:18.671Z,100614.46
2017-11-13T13:24:46.064Z,100626.78
2017-11-13T13:27:13.472Z,100619.74
2017-11-13T13:29:40.871Z,100621.30
2017-11-13T13:32:08.267Z,100619.36
2017-11-13T13:34:35.683Z,100624.05
2017-11-13T13:37:03.071Z,100629.02
2017-11-13T13:39:30.471Z,100633.50
2017-11-13T13:41:57.863Z,100633.61
2017-11-13T13:44:25.264Z,100640.23
2017-11-13T13:46:52.659Z,100634.23
2017-11-13T13:49:20.063Z,100631.08
2017-11-13T13:51:47.461Z,100631.94
2017-11-13T13:54:14.860Z,100629.48
2017-11-13T13:56:42.274Z,100633.72
2017-11-13T13:59:09.657Z,100634.18
2017-11-13T14:01:37.059Z,100644.28
2017-11-13T14:04:04.464Z,100649.16
2017-11-13T14:06:31.855Z,100651.83
2017-11-13T14:08:59.264Z,100656.57
2017-11-13T14:11:26.664Z,100651.77
2017-11-13T14:13:54.059Z,100651.36
2017-11-13T14:16:21.454Z,100656.69
2017-11-13T14:18:48.855Z,100664.34
2017-11-13T14:21:16.255Z,100674.25
2017-11-13T14:23:43.647Z,100668.53
2017-11-13T14:26:11.044Z,100666.36
2017-11-13T14:28:38.438Z,100676.49
2017-11-13T14:31:05.861Z,100673.78
2017-11-13T14:33:33.252Z,100681.97
2017-11-13T14:36:00.641Z,100674.52
2017-11-13T14:38:28.046Z,100678.70
2017-11-13T14:40:55.432Z,100684.59
2017-11-13T14:43:22.832Z,100687.08
2017-11-13T14:45:50.228Z,100690.03
2017-11-13T14:48:17.631Z,100686.52
2017-11-13T14:50:45.035Z,100690.45
2017-11-13T14:53:12.424Z,100699.02
2017-11-13T14:55:39.808Z,100700.11
2017-11-13T14:58:07.200Z,100698.17
2017-11-13T15:00:34.608Z,100705.97
2017-11-13T15:03:02.037Z,100713.77
2017-11-13T15:05:29.725Z,100715.36
2017-11-13T15:07:57.120Z,100713.05
2017-11-13T15:10:24.532Z,100723.56
2017-11-13T15:12:51.914Z,100724.09
2017-11-13T15:15:19.304Z,100722.31
2017-11-13T15:17:46.711Z,100730.55
2017-11-13T15:20:14.109Z,100728.80
2017-11-13T15:22:41.525Z,100729.78
2017-11-13T15:25:08.929Z,100739.72
2017-11-13T15:27:36.321Z,100738.04
2017-11-13T15:30:03.729Z,100741.02
2017-11-13T15:32:31.118Z,100750.36
2017-11-13T15:34:58.515Z,100752.91
2017-11-13T15:37:25.938Z,100747.30
2017-11-13T15:39:53.340Z,100752.73
2017-11-13T15:42:21.683Z,100752.20
2017-11-13T15:44:49.080Z,100755.05
2017-11-13T15:47:16.506Z,100762.17
2017-11-13T15:49:43.894Z,100762.25
2017-11-13T15:52:11.870Z,100757.78
2017-11-13T15:54:39.239Z,100763.04
2017-11-13T15:57:06.640Z,100769.52
2017-11-13T15:59:34.031Z,100774.71
2017-11-13T16:02:01.426Z,100776.61
2017-11-13T16:04:28.819Z,100774.00
2017-11-13T16:06:56.208Z,100776.07
2017-11-13T16:09:23.595Z,100781.38
2017-11-13T16:11:51.006Z,100784.84
2017-11-13T16:14:24.191Z,100790.50
2017-11-13T16:16:51.591Z,100787.66
2017-11-13T16:19:18.982Z,100790.41
2017-11-13T16:21:46.369Z,100795.90
2017-11-13T16:24:13.764Z,100796.20
2017-11-13T16:26:41.154Z,100798.25
2017-11-13T16:29:08.556Z,100802.13
2017-11-13T16:31:35.924Z,100802.98
2017-11-13T16:34:03.321Z,100810.63
2017-11-13T16:36:30.711Z,100809.58
2017-11-13T16:38:58.108Z,100815.53
2017-11-13T16:41:25.501Z,100819.09
2017-11-13T16:43:52.879Z,100828.52
2017-11-13T16:46:20.268Z,100826.50
2017-11-13T16:48:47.655Z,100823.84
2017-11-13T16:51:15.047Z,100835.52
2017-11-13T16:53:42.444Z,100834.47
2017-11-13T16:56:09.839Z,100826.92
2017-11-13T16:58:37.227Z,100829.94
2017-11-13T17:01:04.628Z,100836.53
2017-11-13T17:03:32.015Z,100833.08
2017-11-13T17:05:59.408Z,100834.36
2017-11-13T17:08:26.806Z,100834.41
2017-11-13T17:10:54.192Z,100844.18
2017-11-13T17:13:21.587Z,100839.35
2017-11-13T17:15:48.980Z,100846.20
2017-11-13T17:18:16.371Z,100845.58
2017-11-13T17:20:43.763Z,100854.60
2017-11-13T17:23:11.170Z,100863.41
2017-11-13T17:25:38.555Z,100876.68
2017-11-13T17:28:05.945Z,100873.38
2017-11-13T17:30:33.341Z,100872.59
2017-11-13T17:33:00.736Z,100881.89
2017-11-13T17:35:28.127Z,100885.29
2017-11-13T17:37:55.511Z,100880.92
2017-11-13T17:40:22.899Z,100884.55
2017-11-13T17:42:50.284Z,100893.09
2017-11-13T17:45:17.675Z,100905.30
2017-11-13T17:47:45.083Z,100910.17
2017-11-13T17:50:12.475Z,100910.64
2017-11-13T17:52:39.863Z,100911.53
2017-11-13T17:55:07.251Z,100912.34
2017-11-13T17:57:34.639Z,100922.96
2017-11-13T18:00:02.019Z,100922.31
2017-11-13T18:02:29.423Z,100921.61
2017-11-13T18:04:56.807Z,100921.97
2017-11-13T18:07:24.219Z,100917.78
2017-11-13T18:09:51.609Z,100920.80
2017-11-13T18:12:18.995Z,100924.87
2017-11-13T18:14:46.391Z,100924.55
2017-11-13T18:17:13.778Z,100927.16
2017-11-13T18:19:41.175Z,100929.83
2017-11-13T18:22:08.554Z,100930.86
2017-11-13T18:24:35.960Z,100930.67
2017-11-13T18:27:03.346Z,100933.92
2017-11-13T18:29:30.742Z,100930.06
2017-11-13T18:31:58.135Z,100933.78
2017-11-13T18:34:25.528Z,100940.27
2017-11-13T18:36:52.921Z,100937.02
2017-11-13T18:39:20.309Z,100942.06
2017-11-13T18:41:47.719Z,100943.47
2017-11-13T18:44:16.163Z,100947.36
2017-11-13T18:46:43.562Z,100949.05
2017-11-13T18:49:10.943Z,100955.84
2017-11-13T18:51:39.105Z,100949.48
2017-11-13T18:54:06.520Z,100956.45
2017-11-13T18:56:33.903Z,100961.84
2017-11-13T18:59:01.319Z,100960.59
2017-11-13T19:01:36.420Z,100963.49
2017-11-13T19:04:03.869Z,100966.15
2017-11-13T19:06:32.094Z,100961.28
2017-11-13T19:08:59.518Z,100963.59
2017-11-13T19:11:26.897Z,100970.44
2017-11-13T19:13:55.054Z,100972.69
2017-11-13T19:16:22.451Z,100968.05
2017-11-13T19:18:50.656Z,100978.07
2017-11-13T19:21:18.097Z,100976.09
2017-11-13T19:23:45.516Z,100972.44
2017-11-13T19:26:13.026Z,100977.98
2017-11-13T19:28:40.416Z,100978.97
2017-11-13T19:31:20.690Z,100986.74
2017-11-13T19:33:48.099Z,100986.25
2017-11-13T19:36:15.493Z,100992.21
2017-11-13T19:38:43.834Z,101000.73
2017-11-13T19:41:11.240Z,101000.14
2017-11-13T19:43:38.663Z,101001.14
2017-11-13T19:46:06.055Z,101001.62
2017-11-13T19:48:33.473Z,101011.04
2017-11-13T19:51:00.869Z,101002.92
2017-11-13T19:53:28.255Z,101002.98
2017-11-13T19:55:55.654Z,101007.09
2017-11-13T19:58:23.051Z,101005.25
2017-11-13T20:00:50.496Z,101009.27
2017-11-13T20:03:17.889Z,101013.80
2017-11-13T20:05:45.312Z,101015.86
2017-11-13T20:08:12.699Z,101018.13
2017-11-13T20:10:40.100Z,101021.28
2017-11-13T20:13:07.496Z,101019.55
2017-11-13T20:15:35.798Z,101026.71
2017-11-13T20:18:03.198Z,101020.75
2017-11-13T20:20:30.598Z,101025.52
2017-11-13T20:22:58.015Z,101025.72
2017-11-13T20:25:25.407Z,101028.11
2017-11-13T20:27:52.795Z,101031.75
2017-11-13T20:30:20.204Z,101033.31
2017-11-13T20:32:47.628Z,101039.20
2017-11-13T20:35:15.024Z,101044.27
2017-11-13T20:37:42.416Z,101045.45
2017-11-13T20:40:09.833Z,101042.31
2017-11-13T20:42:37.218Z,101043.45
2017-11-13T20:45:04.613Z,101045.80
2017-11-13T20:47:32.026Z,101058.16
2017-11-13T20:49:59.418Z,101052.70
2017-11-13T20:52:26.807Z,101055.58
2017-11-13T20:54:54.202Z,101056.47
2017-11-13T20:57:21.597Z,101059.56
2017-11-13T20:59:49.002Z,101063.33
2017-11-13T21:02:16.396Z,101059.66
2017-11-13T21:04:43.802Z,101060.20
2017-11-13T21:07:11.195Z,101057.77
2017-11-13T21:09:38.594Z,101062.75
2017-11-13T21:12:05.988Z,101064.44
2017-11-13T21:14:33.379Z,101065.48
2017-11-13T21:17:00.780Z,101073.97
2017-11-13T21:19:28.170Z,101073.86
2017-11-13T21:21:59.267Z,101077.34
2017-11-13T21:24:26.670Z,101079.81
2017-11-13T21:26:54.072Z,101081.97
2017-11-13T21:29:21.476Z,101080.91
2017-11-13T21:31:48.859Z,101074.98
2017-11-13T21:34:16.267Z,101078.80
2017-11-13T21:36:43.664Z,101086.07
2017-11-13T21:39:11.079Z,101085.17
2017-11-13T21:41:38.472Z,101078.17
2017-11-13T21:44:05.859Z,101083.14
2017-11-13T21:46:33.258Z,101079.89
2017-11-13T21:49:00.658Z,101087.61
2017-11-13T21:51:28.064Z,101083.89
2017-11-13T21:53:55.466Z,101085.23
2017-11-13T21:56:22.880Z,101097.44
2017-11-13T21:58:50.287Z,101096.42
2017-11-13T22:01:17.680Z,101094.31
2017-11-13T22:03:45.084Z,101095.22
2017-11-13T22:06:15.524Z,101101.26
2017-11-13T22:08:42.928Z,101099.28
2017-11-13T22:11:10.307Z,101098.64
2017-11-13T22:13:37.735Z,101093.64
2017-11-13T22:16:05.131Z,101092.72
2017-11-13T22:18:32.527Z,101098.29
2017-11-13T22:20:59.940Z,101097.53
2017-11-13T22:23:27.352Z,101106.41
2017-11-13T22:25:54.751Z,101100.91
2017-11-13T22:28:22.152Z,101102.00
2017-11-13T22:30:49.580Z,101103.34
2017-11-13T22:33:16.981Z,101105.72
2017-11-13T22:35:44.381Z,101104.94
2017-11-13T22:38:11.795Z,101105.61
2017-11-13T22:40:39.186Z,101111.61
2017-11-13T22:43:06.607Z,101104.45
2017-11-13T22:45:33.995Z,101107.15
2017-11-13T22:48:01.415Z,101103.87
2017-11-13T22:50:28.814Z,101110.97
2017-11-13T22:52:56.212Z,101112.38
2017-11-13T22:55:23.619Z,101106.25
2017-11-13T22:57:51.034Z,101105.35
2017-11-13T23:00:18.439Z,101108.25
2017-11-13T23:02:45.844Z,101100.30
2017-11-13T23:05:13.256Z,101102.82
2017-11-13T23:07:40.655Z,101103.27
2017-11-13T23:10:08.121Z,101104.13
2017-11-13T23:12:35.514Z,101108.81
2017-11-13T23:15:02.915Z,101107.59
2017-11-13T23:17:30.318Z,101108.70
2017-11-13T23:19:57.733Z,101115.19
2017-11-13T23:22:25.137Z,101113.39
2017-11-13T23:24:52.536Z,101119.23
2017-11-13T23:27:19.924Z,101118.23
2017-11-13T23:29:47.353Z,101121.52
2017-11-13T23:32:14.756Z,101120.14
2017-11-13T23:34:42.160Z,101117.52
2017-11-13T23:37:09.558Z,101115.52
2017-11-13T23:39:36.967Z,101115.39
2017-11-13T23:42:04.824Z,101121.02
2017-11-13T23:44:32.225Z,101128.13
2017-11-13T23:46:59.630Z,101138.67
2017-11-13T23:49:27.040Z,101130.16
2017-11-13T23:51:54.456Z,101139.61
2017-11-13T23:54:33.607Z,101133.91
2017-11-13T23:57:01.011Z,101141.17
2017-11-13T23:59:28.411Z,101133.56
